createdAt,value
2019-06-26T00:02:27.301Z,9.60
2019-06-26T00:04:56.705Z,8.30
2019-06-26T00:07:26.141Z,9.15
2019-06-26T00:09:55.620Z,8.30
2019-06-26T00:12:25.143Z,7.77
2019-06-26T00:14:54.658Z,9.15
2019-06-26T00:17:24.135Z,10.77
2019-06-26T00:19:53.523Z,8.60
2019-06-26T00:22:22.954Z,9.40
2019-06-26T00:24:52.437Z,11.55
2019-06-26T00:27:22.156Z,8.47
2019-06-26T00:29:51.595Z,12.60
2019-06-26T00:32:20.993Z,11.15
2019-06-26T00:34:50.498Z,10.23
2019-06-26T00:37:20.062Z,9.77
2019-06-26T00:39:49.437Z,9.48
2019-06-26T00:42:18.847Z,8.70
2019-06-26T00:44:48.368Z,10.30
2019-06-26T00:47:17.908Z,9.45
2019-06-26T00:49:47.304Z,11.20
2019-06-26T00:52:16.843Z,8.28
2019-06-26T00:54:46.217Z,8.57
2019-06-26T00:57:15.608Z,7.22
2019-06-26T00:59:45.122Z,6.92
2019-06-26T01:02:14.616Z,6.80
2019-06-26T01:04:46.173Z,7.80
2019-06-26T01:07:15.595Z,11.63
2019-06-26T01:09:45.071Z,8.27
2019-06-26T01:12:14.559Z,7.30
2019-06-26T01:14:43.981Z,7.95
2019-06-26T01:17:13.366Z,6.90
2019-06-26T01:19:42.957Z,7.17
2019-06-26T01:22:12.475Z,6.97
2019-06-26T01:24:41.861Z,10.78
2019-06-26T01:27:11.251Z,8.95
2019-06-26T01:29:40.877Z,7.40
2019-06-26T01:32:10.270Z,7.72
2019-06-26T01:34:39.759Z,8.78
2019-06-26T01:37:09.286Z,9.17
2019-06-26T01:39:38.703Z,8.05
2019-06-26T01:42:08.101Z,8.00
2019-06-26T01:44:37.627Z,9.30
2019-06-26T01:47:07.110Z,8.47
2019-06-26T01:49:36.490Z,8.55
2019-06-26T01:52:05.911Z,9.25
2019-06-26T01:54:35.401Z,11.63
2019-06-26T01:57:04.902Z,7.50
2019-06-26T01:59:34.329Z,10.97
2019-06-26T02:02:03.725Z,10.40
2019-06-26T02:04:33.345Z,7.97
2019-06-26T02:07:02.954Z,10.20
2019-06-26T02:09:32.318Z,8.28
2019-06-26T02:12:01.815Z,10.60
2019-06-26T02:14:31.989Z,10.00
2019-06-26T02:17:02.655Z,9.27
2019-06-26T02:19:32.147Z,7.33
2019-06-26T02:22:01.674Z,11.07
2019-06-26T02:24:31.067Z,8.60
2019-06-26T02:27:00.496Z,10.85
2019-06-26T02:29:30.071Z,9.13
2019-06-26T02:31:59.631Z,11.43
2019-06-26T02:34:29.039Z,11.77
2019-06-26T02:36:58.491Z,11.95
2019-06-26T02:39:28.272Z,9.28
2019-06-26T02:41:57.758Z,11.35
2019-06-26T02:44:27.174Z,12.20
2019-06-26T02:47:13.606Z,12.33
2019-06-26T02:49:27.756Z,9.57
2019-06-26T02:51:57.216Z,10.47
2019-06-26T02:54:26.664Z,12.40
2019-06-26T02:56:56.153Z,8.57
2019-06-26T02:59:25.581Z,9.43
2019-06-26T03:01:54.954Z,9.93
2019-06-26T03:04:24.456Z,12.65
2019-06-26T03:06:53.963Z,9.80
2019-06-26T03:09:23.543Z,11.43
2019-06-26T03:11:52.938Z,10.53
2019-06-26T03:14:22.482Z,14.07
2019-06-26T03:16:51.981Z,12.47
2019-06-26T03:19:21.632Z,12.30
2019-06-26T03:21:51.075Z,9.73
2019-06-26T03:24:20.570Z,11.28
2019-06-26T03:26:50.058Z,16.73
2019-06-26T03:29:19.496Z,11.48
2019-06-26T03:31:48.892Z,9.47
2019-06-26T03:34:18.356Z,10.93
2019-06-26T03:36:47.898Z,15.65
2019-06-26T03:39:17.280Z,11.93
2019-06-26T03:41:46.685Z,13.45
2019-06-26T03:44:16.326Z,11.33
2019-06-26T03:46:45.799Z,11.03
2019-06-26T03:49:15.193Z,13.45
2019-06-26T03:51:44.662Z,10.45
2019-06-26T03:54:14.146Z,11.78
2019-06-26T03:56:43.652Z,10.60
2019-06-26T03:59:13.077Z,12.00
2019-06-26T04:01:42.532Z,10.05
2019-06-26T04:04:12.159Z,11.70
2019-06-26T04:06:41.798Z,11.78
2019-06-26T04:09:11.533Z,11.10
2019-06-26T04:11:41.034Z,9.58
2019-06-26T04:14:10.468Z,9.85
2019-06-26T04:16:39.853Z,13.20
2019-06-26T04:19:09.341Z,11.90
2019-06-26T04:21:38.990Z,8.98
2019-06-26T04:24:08.370Z,8.83
2019-06-26T04:26:37.773Z,10.28
2019-06-26T04:29:07.392Z,9.10
2019-06-26T04:31:36.890Z,11.57
2019-06-26T04:34:06.253Z,10.63
2019-06-26T04:36:35.733Z,9.48
2019-06-26T04:39:06.933Z,11.95
2019-06-26T04:41:36.440Z,9.48
2019-06-26T04:44:05.842Z,11.20
2019-06-26T04:46:35.256Z,9.33
2019-06-26T04:49:04.957Z,11.15
2019-06-26T04:51:34.421Z,11.05
2019-06-26T04:54:03.914Z,8.85
2019-06-26T04:56:33.482Z,10.45
2019-06-26T04:59:02.898Z,14.63
2019-06-26T05:01:32.282Z,7.85
2019-06-26T05:04:01.830Z,14.23
2019-06-26T05:06:31.391Z,15.58
2019-06-26T05:09:00.770Z,9.25
2019-06-26T05:11:30.162Z,8.40
2019-06-26T05:13:59.687Z,10.35
2019-06-26T05:16:29.186Z,9.38
2019-06-26T05:18:58.604Z,11.08
2019-06-26T05:21:28.046Z,10.85
2019-06-26T05:23:57.578Z,10.50
2019-06-26T05:26:27.117Z,9.53
2019-06-26T05:28:56.537Z,9.18
2019-06-26T05:31:26.043Z,8.13
2019-06-26T05:33:55.420Z,9.53
2019-06-26T05:36:24.898Z,8.05
2019-06-26T05:38:54.466Z,11.88
2019-06-26T05:41:24.022Z,9.55
2019-06-26T05:43:53.436Z,13.88
2019-06-26T05:46:30.996Z,9.90
2019-06-26T05:48:54.009Z,8.63
2019-06-26T05:51:23.541Z,9.05
2019-06-26T05:53:52.920Z,11.38
2019-06-26T05:56:22.320Z,11.30
2019-06-26T05:58:51.941Z,12.35
2019-06-26T06:01:21.777Z,11.48
2019-06-26T06:03:51.232Z,12.82
2019-06-26T06:06:20.687Z,8.88
2019-06-26T06:08:50.252Z,9.73
2019-06-26T06:11:19.912Z,9.78
2019-06-26T06:13:49.425Z,10.60
2019-06-26T06:16:19.056Z,11.38
2019-06-26T06:18:48.436Z,10.85
2019-06-26T06:21:17.868Z,20.95
2019-06-26T06:23:47.333Z,9.80
2019-06-26T06:26:18.207Z,10.10
2019-06-26T06:28:47.637Z,9.38
2019-06-26T06:31:17.010Z,11.28
2019-06-26T06:33:46.502Z,11.03
2019-06-26T06:36:16.012Z,8.65
2019-06-26T06:38:45.393Z,10.58
2019-06-26T06:41:14.763Z,9.78
2019-06-26T06:43:44.268Z,10.30
2019-06-26T06:46:13.736Z,10.88
2019-06-26T06:48:43.110Z,8.73
2019-06-26T06:51:12.931Z,11.38
2019-06-26T06:53:42.317Z,11.40
2019-06-26T06:56:11.751Z,9.68
2019-06-26T06:58:41.335Z,12.53
2019-06-26T07:01:10.841Z,9.30
2019-06-26T07:03:40.313Z,10.82
2019-06-26T07:06:09.695Z,9.85
2019-06-26T07:08:39.201Z,11.20
2019-06-26T07:11:08.676Z,9.75
2019-06-26T07:13:38.092Z,8.60
2019-06-26T07:16:07.490Z,13.18
2019-06-26T07:18:36.979Z,11.70
2019-06-26T07:21:06.614Z,10.82
2019-06-26T07:23:35.996Z,12.23
2019-06-26T07:26:05.601Z,8.98
2019-06-26T07:28:35.214Z,9.28
2019-06-26T07:31:04.634Z,9.95
2019-06-26T07:33:34.145Z,10.23
2019-06-26T07:36:03.873Z,11.03
2019-06-26T07:38:33.326Z,11.55
2019-06-26T07:41:02.894Z,10.60
2019-06-26T07:43:32.689Z,11.22
2019-06-26T07:46:02.139Z,9.58
2019-06-26T07:48:31.513Z,9.88
2019-06-26T07:51:00.925Z,10.35
2019-06-26T07:53:30.404Z,9.10
2019-06-26T07:55:59.901Z,10.28
2019-06-26T07:58:29.342Z,11.43
2019-06-26T08:00:58.749Z,9.90
2019-06-26T08:03:28.209Z,10.10
2019-06-26T08:05:57.820Z,9.60
2019-06-26T08:08:27.362Z,9.78
2019-06-26T08:10:56.828Z,9.83
2019-06-26T08:13:26.308Z,12.23
2019-06-26T08:15:55.714Z,13.13
2019-06-26T08:18:25.240Z,11.22
2019-06-26T08:21:10.995Z,9.88
2019-06-26T08:23:25.892Z,10.80
2019-06-26T08:25:55.293Z,10.40
2019-06-26T08:28:24.883Z,11.18
2019-06-26T08:30:54.369Z,11.35
2019-06-26T08:33:23.790Z,11.75
2019-06-26T08:35:53.184Z,10.08
2019-06-26T08:38:22.752Z,11.20
2019-06-26T08:40:52.238Z,12.18
2019-06-26T08:43:21.734Z,11.10
2019-06-26T08:45:51.232Z,10.20
2019-06-26T08:48:38.373Z,10.90
2019-06-26T08:50:51.927Z,9.70
2019-06-26T08:53:21.310Z,14.73
2019-06-26T08:55:50.694Z,9.80
2019-06-26T08:58:20.206Z,11.03
2019-06-26T09:00:49.668Z,10.72
2019-06-26T09:03:19.043Z,11.97
2019-06-26T09:05:48.874Z,14.23
2019-06-26T09:08:18.755Z,9.38
2019-06-26T09:10:48.416Z,9.58
2019-06-26T09:13:17.868Z,9.48
2019-06-26T09:15:49.945Z,9.55
2019-06-26T09:18:34.288Z,12.63
2019-06-26T09:20:49.829Z,10.03
2019-06-26T09:23:19.201Z,12.58
2019-06-26T09:25:48.592Z,15.83
2019-06-26T09:28:18.094Z,9.60
2019-06-26T09:30:47.464Z,14.33
2019-06-26T09:33:17.005Z,9.58
2019-06-26T09:35:46.539Z,9.58
2019-06-26T09:38:15.909Z,10.88
2019-06-26T09:40:45.290Z,9.63
2019-06-26T09:43:14.815Z,11.90
2019-06-26T09:45:44.349Z,18.77
2019-06-26T09:48:13.716Z,8.68
2019-06-26T09:50:43.299Z,12.68
2019-06-26T09:53:12.770Z,10.10
2019-06-26T09:55:42.241Z,8.18
2019-06-26T09:58:13.420Z,7.92
2019-06-26T10:00:42.849Z,11.33
2019-06-26T10:03:12.375Z,10.08
2019-06-26T10:05:42.367Z,9.93
2019-06-26T10:08:11.727Z,10.55
2019-06-26T10:10:41.192Z,8.63
2019-06-26T10:13:10.596Z,10.63
2019-06-26T10:15:40.092Z,11.43
2019-06-26T10:18:09.652Z,11.85
2019-06-26T10:20:39.318Z,10.00
2019-06-26T10:23:08.680Z,10.45
2019-06-26T10:25:38.062Z,14.65
2019-06-26T10:28:07.576Z,10.53
2019-06-26T10:30:37.066Z,13.05
2019-06-26T10:33:06.437Z,12.00
2019-06-26T10:35:35.937Z,9.25
2019-06-26T10:38:05.534Z,10.58
2019-06-26T10:40:34.995Z,13.75
2019-06-26T10:43:04.674Z,9.60
2019-06-26T10:45:36.220Z,8.60
2019-06-26T10:48:05.621Z,9.03
2019-06-26T10:50:47.481Z,11.73
2019-06-26T10:53:06.444Z,12.68
2019-06-26T10:55:35.934Z,10.32
2019-06-26T10:58:05.399Z,10.75
2019-06-26T11:00:35.006Z,8.70
2019-06-26T11:03:04.982Z,10.40
2019-06-26T11:05:34.612Z,13.70
2019-06-26T11:08:03.983Z,8.55
2019-06-26T11:10:33.370Z,8.95
2019-06-26T11:13:03.054Z,9.08
2019-06-26T11:15:32.612Z,11.15
2019-06-26T11:18:02.028Z,9.73
2019-06-26T11:20:31.535Z,10.90
2019-06-26T11:23:01.065Z,9.13
2019-06-26T11:25:30.613Z,8.00
2019-06-26T11:28:00.032Z,11.63
2019-06-26T11:30:30.584Z,7.30
2019-06-26T11:32:59.938Z,8.45
2019-06-26T11:35:29.337Z,9.68
2019-06-26T11:37:58.795Z,10.58
2019-06-26T11:40:28.252Z,7.90
2019-06-26T11:42:57.727Z,7.83
2019-06-26T11:45:27.099Z,7.42
2019-06-26T11:47:56.563Z,8.18
2019-06-26T11:50:26.393Z,9.70
2019-06-26T11:52:55.746Z,8.98
2019-06-26T11:55:25.143Z,10.70
2019-06-26T11:57:54.650Z,13.32
2019-06-26T12:00:25.221Z,9.93
2019-06-26T12:02:54.617Z,9.15
2019-06-26T12:05:24.058Z,10.50
2019-06-26T12:07:53.660Z,11.80
2019-06-26T12:10:23.448Z,10.00
2019-06-26T12:12:53.016Z,11.80
2019-06-26T12:15:24.061Z,10.38
2019-06-26T12:17:53.480Z,11.10
2019-06-26T12:20:23.018Z,11.73
2019-06-26T12:22:52.551Z,10.85
2019-06-26T12:25:22.023Z,15.43
2019-06-26T12:27:51.429Z,18.40
2019-06-26T12:30:21.501Z,12.33
2019-06-26T12:33:02.298Z,12.35
2019-06-26T12:35:22.450Z,8.45
2019-06-26T12:37:51.776Z,13.22
2019-06-26T12:40:21.325Z,9.08
2019-06-26T12:42:50.836Z,11.55
2019-06-26T12:45:21.008Z,9.88
2019-06-26T12:47:50.377Z,15.05
2019-06-26T12:50:34.887Z,11.05
2019-06-26T12:52:54.354Z,23.20
2019-06-26T12:55:23.721Z,14.13
2019-06-26T12:57:53.770Z,19.00
2019-06-26T13:00:23.333Z,25.17
2019-06-26T13:02:52.712Z,70.45
2019-06-26T13:05:22.509Z,52.53
2019-06-26T13:07:52.035Z,14.15
2019-06-26T13:10:21.603Z,14.15
2019-06-26T13:12:51.005Z,11.20
2019-06-26T13:15:20.495Z,10.30
2019-06-26T13:17:49.993Z,12.55
2019-06-26T13:20:19.604Z,10.78
2019-06-26T13:22:48.953Z,11.08
2019-06-26T13:25:18.410Z,11.88
2019-06-26T13:27:48.419Z,10.88
2019-06-26T13:30:22.777Z,16.17
2019-06-26T13:32:52.290Z,17.27
2019-06-26T13:35:24.247Z,11.75
2019-06-26T13:37:52.866Z,10.68
2019-06-26T13:40:22.349Z,10.13
2019-06-26T13:42:51.818Z,14.38
2019-06-26T13:45:21.279Z,9.40
2019-06-26T13:47:50.724Z,15.55
2019-06-26T13:50:21.512Z,18.40
2019-06-26T13:52:51.040Z,15.83
2019-06-26T13:55:20.541Z,12.53
2019-06-26T13:57:49.918Z,8.95
2019-06-26T14:00:21.104Z,12.15
2019-06-26T14:02:50.642Z,11.88
2019-06-26T14:05:20.214Z,9.50
2019-06-26T14:07:49.609Z,13.65
2019-06-26T14:10:20.734Z,13.30
2019-06-26T14:12:50.271Z,14.25
2019-06-26T14:15:20.765Z,13.68
2019-06-26T14:17:52.436Z,11.80
2019-06-26T14:20:22.452Z,11.45
2019-06-26T14:22:52.116Z,10.82
2019-06-26T14:25:21.626Z,10.38
2019-06-26T14:27:50.984Z,12.45
2019-06-26T14:30:21.710Z,12.00
2019-06-26T14:32:51.222Z,15.10
2019-06-26T14:35:20.784Z,11.15
2019-06-26T14:37:50.163Z,17.35
2019-06-26T14:40:21.089Z,11.20
2019-06-26T14:42:50.672Z,12.85
2019-06-26T14:45:20.225Z,11.05
2019-06-26T14:47:50.262Z,13.20
2019-06-26T14:50:20.636Z,11.65
2019-06-26T14:52:50.036Z,15.32
2019-06-26T14:55:19.590Z,10.53
2019-06-26T14:57:49.164Z,8.88
2019-06-26T15:00:19.211Z,9.78
2019-06-26T15:02:48.648Z,11.45
2019-06-26T15:05:18.126Z,12.60
2019-06-26T15:07:50.123Z,10.65
2019-06-26T15:10:19.323Z,14.20
2019-06-26T15:12:50.171Z,12.23
2019-06-26T15:15:19.879Z,14.87
2019-06-26T15:17:49.376Z,13.43
2019-06-26T15:20:18.959Z,7.47
2019-06-26T15:22:48.443Z,15.30
2019-06-26T15:25:18.782Z,10.93
2019-06-26T15:27:49.993Z,12.30
2019-06-26T15:30:20.470Z,9.38
2019-06-26T15:32:51.349Z,13.28
2019-06-26T15:35:20.978Z,10.23
2019-06-26T15:37:50.369Z,9.83
2019-06-26T15:40:20.283Z,13.28
2019-06-26T15:42:50.035Z,13.40
2019-06-26T15:45:25.074Z,12.37
2019-06-26T15:47:55.452Z,66.33
2019-06-26T15:50:25.690Z,121.30
2019-06-26T15:52:55.684Z,208.87
2019-06-26T15:55:25.394Z,136.97
2019-06-26T15:57:55.981Z,19.87
2019-06-26T16:00:31.991Z,47.45
2019-06-26T16:03:02.217Z,38.15
2019-06-26T16:05:32.011Z,20.35
2019-06-26T16:08:01.847Z,8.25
2019-06-26T16:10:34.428Z,19.70
2019-06-26T16:13:03.737Z,42.65
2019-06-26T16:15:33.721Z,78.22
2019-06-26T16:18:17.939Z,36.90
2019-06-26T16:20:47.550Z,47.65
2019-06-26T16:23:19.042Z,16.17
2019-06-26T16:25:49.501Z,9.63
2019-06-26T16:28:19.061Z,9.38
2019-06-26T16:30:49.611Z,8.35
2019-06-26T16:33:19.071Z,9.65
2019-06-26T16:35:48.562Z,12.98
2019-06-26T16:38:19.323Z,11.50
2019-06-26T16:40:51.793Z,10.98
2019-06-26T16:43:21.286Z,20.27
2019-06-26T16:45:51.188Z,12.55
2019-06-26T16:48:20.776Z,10.48
2019-06-26T16:50:50.350Z,9.28
2019-06-26T16:53:20.154Z,9.43
2019-06-26T16:55:49.920Z,9.18
2019-06-26T16:58:19.356Z,16.17
2019-06-26T17:00:49.468Z,11.48
2019-06-26T17:03:19.018Z,12.33
2019-06-26T17:05:48.929Z,11.78
2019-06-26T17:08:21.498Z,17.55
2019-06-26T17:10:52.286Z,12.40
2019-06-26T17:13:22.655Z,12.03
2019-06-26T17:15:52.736Z,22.45
2019-06-26T17:18:22.685Z,27.55
2019-06-26T17:20:53.288Z,26.60
2019-06-26T17:23:23.352Z,13.85
2019-06-26T17:25:53.029Z,18.12
2019-06-26T17:28:24.253Z,13.43
2019-06-26T17:30:53.859Z,13.62
2019-06-26T17:33:23.750Z,12.35
2019-06-26T17:35:53.280Z,11.75
2019-06-26T17:38:22.778Z,10.03
2019-06-26T17:40:52.268Z,13.72
2019-06-26T17:43:21.726Z,13.05
2019-06-26T17:45:52.974Z,11.30
2019-06-26T17:48:22.471Z,13.78
2019-06-26T17:50:52.015Z,15.65
2019-06-26T17:53:22.358Z,17.40
2019-06-26T17:55:51.828Z,11.80
2019-06-26T17:58:21.411Z,31.73
2019-06-26T18:00:50.919Z,13.85
2019-06-26T18:03:20.316Z,65.72
2019-06-26T18:05:49.775Z,120.92
2019-06-26T18:08:19.356Z,91.87
2019-06-26T18:10:48.795Z,96.75
2019-06-26T18:13:18.400Z,43.52
2019-06-26T18:15:47.912Z,23.10
2019-06-26T18:18:17.294Z,21.25
2019-06-26T18:20:46.742Z,14.58
2019-06-26T18:23:16.243Z,15.93
2019-06-26T18:25:53.822Z,29.40
2019-06-26T18:28:16.934Z,17.95
2019-06-26T18:30:46.364Z,24.57
2019-06-26T18:33:15.889Z,42.03
2019-06-26T18:35:46.652Z,34.35
2019-06-26T18:38:16.042Z,36.08
2019-06-26T18:40:45.744Z,31.93
2019-06-26T18:43:15.268Z,31.30
2019-06-26T18:45:44.780Z,23.62
2019-06-26T18:48:14.120Z,81.08
2019-06-26T18:50:43.632Z,21.23
2019-06-26T18:53:13.805Z,17.92
2019-06-26T18:55:47.049Z,35.50
2019-06-26T18:58:16.594Z,40.98
2019-06-26T19:00:46.076Z,65.73
2019-06-26T19:03:15.528Z,48.20
2019-06-26T19:05:44.936Z,10.65
2019-06-26T19:08:14.477Z,11.00
2019-06-26T19:10:44.213Z,13.98
2019-06-26T19:13:13.611Z,11.18
2019-06-26T19:15:43.070Z,13.60
2019-06-26T19:18:12.733Z,12.05
2019-06-26T19:20:42.308Z,12.75
2019-06-26T19:23:11.824Z,15.08
2019-06-26T19:25:41.288Z,12.00
2019-06-26T19:28:10.812Z,15.60
2019-06-26T19:30:40.711Z,14.30
2019-06-26T19:33:10.169Z,14.68
2019-06-26T19:35:39.588Z,17.37
2019-06-26T19:38:09.163Z,13.93
2019-06-26T19:40:38.734Z,12.58
2019-06-26T19:43:11.019Z,22.07
2019-06-26T19:45:39.313Z,15.95
2019-06-26T19:48:08.884Z,38.42
2019-06-26T19:50:38.433Z,18.57
2019-06-26T19:53:07.838Z,12.65
2019-06-26T19:55:37.299Z,13.90
2019-06-26T19:58:06.843Z,18.52
2019-06-26T20:00:36.383Z,11.80
2019-06-26T20:03:05.876Z,13.28
2019-06-26T20:05:35.269Z,12.40
2019-06-26T20:08:04.774Z,14.90
2019-06-26T20:10:34.415Z,19.82
2019-06-26T20:13:03.886Z,28.42
2019-06-26T20:15:33.424Z,17.48
2019-06-26T20:18:04.314Z,22.42
2019-06-26T20:20:33.950Z,14.93
2019-06-26T20:23:03.459Z,13.45
2019-06-26T20:25:33.023Z,15.03
2019-06-26T20:28:02.434Z,14.20
2019-06-26T20:30:33.492Z,13.43
2019-06-26T20:33:03.095Z,13.48
2019-06-26T20:35:32.603Z,11.83
2019-06-26T20:38:02.054Z,18.92
2019-06-26T20:40:31.553Z,12.88
2019-06-26T20:43:01.040Z,10.78
2019-06-26T20:45:30.771Z,16.27
2019-06-26T20:48:00.203Z,11.43
2019-06-26T20:50:29.691Z,12.10
2019-06-26T20:52:59.096Z,16.80
2019-06-26T20:55:28.554Z,15.77
2019-06-26T20:57:58.158Z,12.77
2019-06-26T21:00:27.763Z,22.70
2019-06-26T21:02:57.200Z,21.00
2019-06-26T21:05:28.900Z,28.23
2019-06-26T21:07:57.860Z,28.53
2019-06-26T21:10:27.431Z,26.47
2019-06-26T21:12:56.835Z,21.73
2019-06-26T21:15:26.235Z,19.67
2019-06-26T21:17:55.785Z,17.27
2019-06-26T21:20:25.278Z,21.13
2019-06-26T21:22:54.767Z,18.50
2019-06-26T21:25:24.511Z,18.47
2019-06-26T21:27:54.074Z,17.67
2019-06-26T21:30:23.480Z,18.60
2019-06-26T21:32:57.542Z,18.10
2019-06-26T21:35:27.705Z,15.27
2019-06-26T21:37:57.123Z,17.30
2019-06-26T21:40:26.753Z,17.20
2019-06-26T21:42:56.331Z,15.63
2019-06-26T21:45:25.838Z,15.80
2019-06-26T21:47:55.279Z,21.07
2019-06-26T21:50:24.698Z,14.07
2019-06-26T21:52:54.960Z,14.63
2019-06-26T21:55:33.683Z,13.23
2019-06-26T21:57:55.719Z,13.72
2019-06-26T22:00:25.177Z,18.03
2019-06-26T22:02:57.690Z,17.83
2019-06-26T22:05:25.981Z,13.07
2019-06-26T22:07:55.485Z,13.17
2019-06-26T22:10:25.008Z,16.63
2019-06-26T22:12:54.410Z,14.03
2019-06-26T22:15:23.890Z,12.27
2019-06-26T22:17:53.528Z,13.80
2019-06-26T22:20:23.164Z,12.27
2019-06-26T22:22:52.722Z,12.20
2019-06-26T22:25:22.267Z,10.00
2019-06-26T22:27:51.764Z,12.97
2019-06-26T22:30:21.467Z,12.50
2019-06-26T22:32:50.972Z,13.07
2019-06-26T22:35:20.362Z,11.23
2019-06-26T22:37:49.862Z,11.87
2019-06-26T22:40:19.503Z,13.60
2019-06-26T22:42:48.967Z,13.00
2019-06-26T22:45:19.080Z,12.13
2019-06-26T22:47:48.633Z,13.70
2019-06-26T22:50:20.011Z,12.47
2019-06-26T22:52:49.490Z,12.90
2019-06-26T22:55:19.113Z,13.93
2019-06-26T22:57:48.568Z,16.27
2019-06-26T23:00:19.755Z,12.63
2019-06-26T23:02:49.289Z,14.03
2019-06-26T23:05:18.793Z,14.00
2019-06-26T23:07:48.200Z,16.00
2019-06-26T23:10:18.957Z,14.87
2019-06-26T23:12:48.475Z,14.93
2019-06-26T23:15:18.176Z,15.83
2019-06-26T23:17:47.734Z,16.63
2019-06-26T23:20:17.132Z,14.00
2019-06-26T23:22:46.720Z,13.73
2019-06-26T23:25:16.548Z,13.77
2019-06-26T23:27:45.945Z,15.13
2019-06-26T23:30:19.573Z,19.47
2019-06-26T23:32:49.113Z,13.63
2019-06-26T23:35:18.534Z,14.37
2019-06-26T23:37:48.165Z,14.37
2019-06-26T23:40:18.659Z,13.83
2019-06-26T23:42:48.066Z,13.37
2019-06-26T23:45:18.298Z,11.90
2019-06-26T23:47:47.881Z,13.93
2019-06-26T23:50:17.981Z,13.67
2019-06-26T23:52:47.405Z,13.40
2019-06-26T23:55:16.863Z,15.10
2019-06-26T23:57:58.423Z,15.20
